Time;durP1;ratioP1;P1;durP2;ratioP2;P2;SDS_P1;SDS_P2;PMS_P1;PMS_P2;Temp;Humidity;BMP_temperature;BMP_pressure;BME280_temperature;BME280_humidity;BME280_pressure;Samples;Min_cycle;Max_cycle;Signal;HPM_P1;HPM_P2
2021/03/27 00:00:37;;;;;;;;;;;;;;;8.98;52.48;100750.78;1742367;82;21393;-66
2021/03/27 00:03:20;;;;;;;;;;;;;;;8.98;52.75;100747.62;1743197;82;20759;-65
2021/03/27 00:06:00;;;;;;;;;;;;;;;9.01;52.65;100748.56;1743246;82;20114;-64
2021/03/27 00:08:34;;;;;;;;;;;;;;;9.01;52.70;100745.88;1740438;82;20303;-63
2021/03/27 00:11:10;;;;;;;;;;;;;;;9.01;52.82;100747.22;1726128;82;20281;-64
2021/03/27 00:14:01;;;;;;;;;;;;;;;9.00;52.84;100751.44;1743059;82;20258;-63
2021/03/27 00:16:52;;;;;;;;;;;;;;;8.99;52.93;100747.10;1741974;82;20130;-64
2021/03/27 00:19:36;;;;;;;;;;;;;;;8.98;52.90;100750.78;1740435;82;20142;-65
2021/03/27 00:22:14;;;;;;;;;;;;;;;8.94;52.88;100746.36;1742806;82;20303;-64
2021/03/27 00:25:20;;;;;;;;;;;;;;;8.90;53.10;100749.11;1739976;82;20138;-64
2021/03/27 00:27:55;;;;;;;;;;;;;;;8.87;53.23;100747.65;1741785;82;20900;-65
2021/03/27 00:30:32;;;;;;;;;;;;;;;8.85;53.41;100743.52;1742724;81;20822;-64
2021/03/27 00:33:00;;;;;;;;;;;;;;;8.84;53.58;100743.22;1742925;82;20292;-63
2021/03/27 00:35:34;;;;;;;;;;;;;;;8.81;53.66;100749.78;1743047;81;20507;-64
2021/03/27 00:38:03;;;;;;;;;;;;;;;8.78;53.83;100754.19;1742047;82;20511;-65
2021/03/27 00:40:34;;;;;;;;;;;;;;;8.76;54.01;100750.90;1743498;82;21379;-64
2021/03/27 00:43:10;;;;;;;;;;;;;;;8.75;54.12;100749.23;1747096;80;20684;-63
2021/03/27 00:45:44;;;;;;;;;;;;;;;8.70;54.10;100747.16;1741521;82;20138;-65
2021/03/27 00:48:16;;;;;;;;;;;;;;;8.68;54.15;100742.50;1741707;82;20491;-65
2021/03/27 00:50:53;;;;;;;;;;;;;;;8.64;54.39;100744.42;1747058;82;20221;-63
2021/03/27 00:53:34;;;;;;;;;;;;;;;8.62;54.58;100742.48;1746568;81;21349;-64
2021/03/27 00:56:11;;;;;;;;;;;;;;;8.64;54.73;100745.77;1745868;82;20613;-64
2021/03/27 00:58:59;;;;;;;;;;;;;;;8.66;54.76;100749.09;1746549;82;20205;-65
2021/03/27 01:01:28;;;;;;;;;;;;;;;8.67;54.81;100740.02;1746763;82;20489;-64
2021/03/27 01:04:00;;;;;;;;;;;;;;;8.70;54.93;100746.31;1704401;82;20245;-62
2021/03/27 01:06:52;;;;;;;;;;;;;;;8.73;54.92;100745.91;1740591;81;21196;-63
2021/03/27 01:09:30;;;;;;;;;;;;;;;8.75;54.74;100745.23;1707018;82;20224;-63
2021/03/27 01:12:27;;;;;;;;;;;;;;;8.75;54.68;100750.57;1742510;82;20162;-63
2021/03/27 01:14:57;;;;;;;;;;;;;;;8.75;54.73;100755.40;1745499;82;20242;-66
2021/03/27 01:17:29;;;;;;;;;;;;;;;8.75;54.75;100743.89;1718458;82;20217;-65
2021/03/27 01:20:03;;;;;;;;;;;;;;;8.75;54.70;100746.56;1747038;82;22112;-63
2021/03/27 01:22:31;;;;;;;;;;;;;;;8.75;54.80;100746.56;1746714;82;20237;-63
2021/03/27 01:25:00;;;;;;;;;;;;;;;8.74;54.73;100747.05;1718204;82;20535;-65
2021/03/27 01:27:32;;;;;;;;;;;;;;;8.74;54.73;100746.23;1746642;82;20309;-64
2021/03/27 01:30:10;;;;;;;;;;;;;;;8.74;54.79;100746.23;1746603;82;20487;-64
2021/03/27 01:32:50;;;;;;;;;;;;;;;8.74;54.75;100744.38;1745513;82;21471;-64
2021/03/27 01:35:24;;;;;;;;;;;;;;;8.74;54.75;100743.56;1743335;82;20507;-63
2021/03/27 01:37:54;;;;;;;;;;;;;;;8.69;54.90;100744.68;1745019;82;20232;-63
2021/03/27 01:40:28;;;;;;;;;;;;;;;8.65;54.90;100741.56;1746535;82;20229;-64
2021/03/27 01:43:18;;;;;;;;;;;;;;;8.64;55.13;100748.44;1746285;82;20240;-63
2021/03/27 01:45:56;;;;;;;;;;;;;;;8.63;55.11;100744.95;1744802;82;21210;-62
2021/03/27 01:48:41;;;;;;;;;;;;;;;8.63;55.12;100742.77;1742660;82;20142;-63
2021/03/27 01:51:25;;;;;;;;;;;;;;;8.64;55.08;100744.42;1746480;82;20203;-63
2021/03/27 01:53:56;;;;;;;;;;;;;;;8.62;55.13;100743.29;1745335;82;20221;-63
2021/03/27 01:56:36;;;;;;;;;;;;;;;8.62;55.38;100750.49;1746595;81;20213;-63
2021/03/27 01:59:10;;;;;;;;;;;;;;;8.64;55.25;100751.92;1746648;82;22118;-63
2021/03/27 02:01:57;;;;;;;;;;;;;;;8.60;55.20;100748.02;1746311;80;20626;-63
2021/03/27 02:04:29;;;;;;;;;;;;;;;8.59;55.30;100751.18;1744260;82;20530;-63
2021/03/27 02:07:06;;;;;;;;;;;;;;;8.61;55.20;100747.50;1746650;82;20221;-64
2021/03/27 02:09:47;;;;;;;;;;;;;;;8.57;55.19;100750.56;1746672;82;20479;-62
2021/03/27 02:12:27;;;;;;;;;;;;;;;8.56;55.33;100750.23;1745674;82;21281;-63
2021/03/27 02:14:57;;;;;;;;;;;;;;;8.56;55.29;100750.23;1746430;82;20455;-64
2021/03/27 02:17:51;;;;;;;;;;;;;;;8.53;55.29;100751.97;1717899;82;20162;-64
2021/03/27 02:20:49;;;;;;;;;;;;;;;8.53;55.51;100750.63;1718312;82;20339;-63
2021/03/27 02:23:38;;;;;;;;;;;;;;;8.54;55.37;100750.14;1743616;82;20217;-62
2021/03/27 02:26:27;;;;;;;;;;;;;;;8.51;55.50;100755.84;1744574;82;22191;-62
2021/03/27 02:29:27;;;;;;;;;;;;;;;8.50;55.45;100761.72;1745258;80;20150;-63
2021/03/27 02:32:03;;;;;;;;;;;;;;;8.48;55.55;100751.74;1697355;82;20344;-61
2021/03/27 02:34:40;;;;;;;;;;;;;;;8.51;55.60;100751.84;1746535;82;20166;-64
2021/03/27 02:37:23;;;;;;;;;;;;;;;8.53;55.61;100757.31;1717523;82;20690;-65
2021/03/27 02:40:00;;;;;;;;;;;;;;;8.56;55.65;100754.77;1745396;82;20198;-66
2021/03/27 02:42:50;;;;;;;;;;;;;;;8.56;55.59;100760.93;1737460;82;20645;-66
2021/03/27 02:45:20;;;;;;;;;;;;;;;8.57;55.53;100758.58;1653869;82;20531;-67
2021/03/27 02:48:06;;;;;;;;;;;;;;;8.55;55.43;100763.80;1732583;82;20165;-63
2021/03/27 02:50:49;;;;;;;;;;;;;;;8.53;55.49;100762.66;1729633;82;20559;-63
2021/03/27 02:53:20;;;;;;;;;;;;;;;8.55;55.32;100761.12;1730871;82;21363;-66
2021/03/27 02:55:54;;;;;;;;;;;;;;;8.51;55.40;100763.86;1732240;82;20123;-67
2021/03/27 02:58:25;;;;;;;;;;;;;;;8.50;55.56;100763.57;1732461;82;20201;-67
2021/03/27 03:01:10;;;;;;;;;;;;;;;8.50;55.78;100766.24;1731119;82;20246;-69
2021/03/27 03:04:01;;;;;;;;;;;;;;;8.51;55.67;100762.53;1729814;82;20135;-66
2021/03/27 03:06:47;;;;;;;;;;;;;;;8.50;55.56;100760.90;1727548;82;21258;-66
2021/03/27 03:09:35;;;;;;;;;;;;;;;8.50;55.43;100767.05;1731981;82;20216;-66
2021/03/27 03:12:06;;;;;;;;;;;;;;;8.48;55.68;100770.94;1731063;82;20226;-62
2021/03/27 03:14:48;;;;;;;;;;;;;;;8.48;55.64;100772.27;1730011;82;20142;-65
2021/03/27 03:17:19;;;;;;;;;;;;;;;8.45;55.59;100769.50;1732208;81;20855;-63
2021/03/27 03:20:12;;;;;;;;;;;;;;;8.41;55.69;100772.20;1730090;82;22265;-63
2021/03/27 03:23:06;;;;;;;;;;;;;;;8.35;55.77;100775.14;1732249;82;20724;-65
2021/03/27 03:25:36;;;;;;;;;;;;;;;8.33;55.90;100780.35;1729427;82;20230;-65
2021/03/27 03:28:26;;;;;;;;;;;;;;;8.34;55.95;100784.69;1732566;82;20218;-65
2021/03/27 03:31:16;;;;;;;;;;;;;;;8.35;55.92;100784.48;1731606;82;20281;-65
2021/03/27 03:33:56;;;;;;;;;;;;;;;8.33;55.84;100786.54;1726716;82;21986;-64
2021/03/27 03:36:42;;;;;;;;;;;;;;;8.33;56.02;100781.20;1648340;82;20252;-65
2021/03/27 03:39:16;;;;;;;;;;;;;;;8.35;55.91;100790.35;1721524;82;20140;-64
2021/03/27 03:41:56;;;;;;;;;;;;;;;8.37;56.01;100784.30;1730074;82;20212;-66
2021/03/27 03:44:44;;;;;;;;;;;;;;;8.39;55.85;100789.77;1736086;82;20306;-68
2021/03/27 03:47:20;;;;;;;;;;;;;;;8.38;55.75;100789.97;1731870;82;21214;-65
2021/03/27 03:50:11;;;;;;;;;;;;;;;8.41;55.84;100797.06;1724288;82;20219;-65
2021/03/27 03:53:10;;;;;;;;;;;;;;;8.42;55.82;100796.06;1726450;82;20507;-62
2021/03/27 03:55:42;;;;;;;;;;;;;;;8.46;55.76;100793.03;1749923;82;20158;-67
2021/03/27 03:58:17;;;;;;;;;;;;;;;8.45;55.60;100791.37;1750985;80;20153;-67
2021/03/27 04:00:58;;;;;;;;;;;;;;;8.42;55.73;100801.41;1725241;82;21582;-67
2021/03/27 04:03:35;;;;;;;;;;;;;;;8.42;55.79;100801.41;1748460;82;20236;-63
2021/03/27 04:06:10;;;;;;;;;;;;;;;8.45;55.86;100802.05;1727766;82;20148;-64
2021/03/27 04:08:50;;;;;;;;;;;;;;;8.47;55.85;100799.52;1717101;82;20300;-65
2021/03/27 04:11:37;;;;;;;;;;;;;;;8.48;55.80;100802.51;1712521;82;20215;-64
2021/03/27 04:14:11;;;;;;;;;;;;;;;8.50;55.74;100803.66;1746839;82;21381;-64
2021/03/27 04:16:41;;;;;;;;;;;;;;;8.49;55.71;100806.81;1748543;82;20494;-65
2021/03/27 04:19:13;;;;;;;;;;;;;;;8.47;55.65;100808.86;1751298;82;20252;-64
2021/03/27 04:21:56;;;;;;;;;;;;;;;8.44;55.65;100803.06;1750876;80;20157;-63
2021/03/27 04:24:33;;;;;;;;;;;;;;;8.45;55.81;100814.08;1729087;82;20217;-63
2021/03/27 04:27:22;;;;;;;;;;;;;;;8.50;55.73;100809.81;1704692;82;21390;-65
2021/03/27 04:30:18;;;;;;;;;;;;;;;8.56;55.72;100810.89;1730784;82;20223;-63
2021/03/27 04:32:55;;;;;;;;;;;;;;;8.64;55.36;100809.39;1728185;82;20300;-63
2021/03/27 04:35:36;;;;;;;;;;;;;;;8.77;55.24;100810.00;1746857;82;20709;-64
2021/03/27 04:38:32;;;;;;;;;;;;;;;8.97;55.04;100810.66;1750715;82;20113;-65
2021/03/27 04:41:36;;;;;;;;;;;;;;;9.46;54.38;100805.12;1751114;82;22144;-65
2021/03/27 04:44:17;;;;;;;;;;;;;;;10.34;52.95;100811.53;1748195;82;20228;-64
2021/03/27 04:46:50;;;;;;;;;;;;;;;11.69;50.39;100815.03;1730223;82;20229;-64
2021/03/27 04:49:28;;;;;;;;;;;;;;;12.74;47.28;100815.02;1731538;82;20229;-65
2021/03/27 04:52:05;;;;;;;;;;;;;;;13.69;45.45;100818.31;1751203;82;20229;-64
2021/03/27 04:54:48;;;;;;;;;;;;;;;14.75;43.03;100819.64;1750741;80;21936;-65
2021/03/27 04:57:34;;;;;;;;;;;;;;;15.50;41.04;100820.69;1748425;80;20223;-64
2021/03/27 05:00:34;;;;;;;;;;;;;;;16.12;39.52;100824.03;1747625;82;20169;-65
2021/03/27 05:03:04;;;;;;;;;;;;;;;16.99;37.99;100821.36;1661434;82;20520;-65
2021/03/27 05:05:48;;;;;;;;;;;;;;;17.95;36.06;100821.97;1750033;82;20530;-64
2021/03/27 05:08:39;;;;;;;;;;;;;;;18.87;34.71;100815.64;1792230;78;20204;-65
2021/03/27 05:11:28;;;;;;;;;;;;;;;19.56;33.31;100822.74;1795211;79;20223;-61
2021/03/27 05:14:23;;;;;;;;;;;;;;;20.29;31.74;100829.97;1793657;79;22280;-62
2021/03/27 05:17:01;;;;;;;;;;;;;;;20.98;30.05;100838.64;1793102;79;20122;-62
2021/03/27 05:19:42;;;;;;;;;;;;;;;21.39;29.75;100838.22;1791888;79;20139;-63
2021/03/27 05:22:28;;;;;;;;;;;;;;;21.81;29.23;100828.21;1794034;79;20233;-65
2021/03/27 05:25:21;;;;;;;;;;;;;;;22.37;28.36;100832.47;1790443;79;20198;-64
2021/03/27 05:28:15;;;;;;;;;;;;;;;22.96;27.68;100834.38;1793794;79;21191;-66
2021/03/27 05:31:06;;;;;;;;;;;;;;;23.53;26.51;100833.98;1764020;79;20528;-64
2021/03/27 05:33:55;;;;;;;;;;;;;;;23.96;25.80;100836.67;1796934;79;20508;-67
2021/03/27 05:36:43;;;;;;;;;;;;;;;24.34;25.31;100838.56;1796553;79;21030;-66
2021/03/27 05:39:29;;;;;;;;;;;;;;;24.75;24.81;100837.04;1794544;79;20516;-65
2021/03/27 05:42:17;;;;;;;;;;;;;;;25.18;24.46;100841.70;1796192;79;21203;-66
2021/03/27 05:44:55;;;;;;;;;;;;;;;25.57;23.87;100835.99;1793855;79;20716;-66
2021/03/27 05:47:43;;;;;;;;;;;;;;;26.04;23.27;100839.33;1762875;80;20352;-65
2021/03/27 05:50:23;;;;;;;;;;;;;;;26.35;23.05;100841.33;1763987;80;20605;-67
2021/03/27 05:53:17;;;;;;;;;;;;;;;26.68;22.43;100843.27;1761628;80;20301;-67
2021/03/27 05:56:18;;;;;;;;;;;;;;;26.97;21.97;100850.73;1763083;80;22132;-68
2021/03/27 05:59:07;;;;;;;;;;;;;;;27.00;21.96;100848.19;1727498;80;20251;-64
2021/03/27 06:01:52;;;;;;;;;;;;;;;27.28;21.83;100845.17;1766081;80;20604;-63
2021/03/27 06:04:39;;;;;;;;;;;;;;;27.51;21.18;100846.48;1733966;80;20202;-65
2021/03/27 06:07:28;;;;;;;;;;;;;;;27.43;21.31;100851.64;1754926;80;20264;-66
2021/03/27 06:10:15;;;;;;;;;;;;;;;27.64;21.51;100852.98;1769598;80;21140;-66
2021/03/27 06:13:08;;;;;;;;;;;;;;;27.94;20.79;100851.20;1766738;80;20295;-67
2021/03/27 06:15:53;;;;;;;;;;;;;;;28.09;20.89;100856.27;1767190;80;20170;-68
2021/03/27 06:18:47;;;;;;;;;;;;;;;28.35;20.87;100859.55;1767902;80;20232;-66
2021/03/27 06:21:30;;;;;;;;;;;;;;;28.61;20.28;100861.48;1769522;80;20149;-65
2021/03/27 06:24:12;;;;;;;;;;;;;;;28.83;20.01;100863.19;1769364;80;21378;-66
2021/03/27 06:27:07;;;;;;;;;;;;;;;28.96;20.14;100866.85;1768222;80;20738;-65
2021/03/27 06:29:45;;;;;;;;;;;;;;;29.09;20.07;100865.81;1767036;80;20138;-68
2021/03/27 06:32:43;;;;;;;;;;;;;;;29.34;19.77;100859.98;1767718;80;20253;-67
2021/03/27 06:35:38;;;;;;;;;;;;;;;29.49;19.51;100859.96;1769298;80;20287;-64
2021/03/27 06:38:31;;;;;;;;;;;;;;;29.46;19.56;100863.39;1775376;80;21493;-63
2021/03/27 06:41:37;;;;;;;;;;;;;;;29.18;19.83;100869.91;1790797;78;20224;-64
2021/03/27 06:44:38;;;;;;;;;;;;;;;29.07;19.94;100870.07;1775833;80;20150;-62
2021/03/27 06:47:24;;;;;;;;;;;;;;;29.33;20.05;100872.15;1762158;80;22127;-63
2021/03/27 06:50:07;;;;;;;;;;;;;;;29.70;19.73;100871.02;1761286;81;20136;-64
2021/03/27 06:53:02;;;;;;;;;;;;;;;29.77;18.63;100875.19;1730428;81;20140;-63
2021/03/27 06:55:55;;;;;;;;;;;;;;;28.94;19.71;100880.18;1758363;80;20191;-64
2021/03/27 06:58:48;;;;;;;;;;;;;;;28.40;20.55;100876.48;1758895;81;20140;-64
2021/03/27 07:01:36;;;;;;;;;;;;;;;28.12;20.66;100876.28;1758824;80;22195;-62
2021/03/27 07:04:22;;;;;;;;;;;;;;;28.09;20.87;100881.61;1758224;80;20130;-62
2021/03/27 07:07:24;;;;;;;;;;;;;;;28.36;20.88;100877.71;1758001;81;20176;-66
2021/03/27 07:10:17;;;;;;;;;;;;;;;28.41;20.87;100879.48;1754967;81;20552;-69
2021/03/27 07:13:07;;;;;;;;;;;;;;;28.43;20.20;100874.44;1757879;79;20211;-68
2021/03/27 07:16:15;;;;;;;;;;;;;;;28.13;20.74;100872.95;1762480;81;20219;-70
2021/03/27 07:19:06;;;;;;;;;;;;;;;27.84;20.96;100877.14;1759407;81;20566;-70
2021/03/27 07:21:51;;;;;;;;;;;;;;;27.45;21.59;100874.72;1758243;79;20225;-67
2021/03/27 07:24:56;;;;;;;;;;;;;;;27.39;21.08;100872.68;1761643;80;20213;-69
2021/03/27 07:27:44;;;;;;;;;;;;;;;26.92;21.36;100874.50;1761066;81;20524;-68
2021/03/27 07:30:28;;;;;;;;;;;;;;;25.93;22.09;100874.98;1757735;81;21205;-69
2021/03/27 07:33:02;;;;;;;;;;;;;;;24.76;23.15;100881.16;1758537;80;20185;-68
2021/03/27 07:36:05;;;;;;;;;;;;;;;23.25;24.98;100880.28;1760356;81;20233;-69
2021/03/27 07:38:45;;;;;;;;;;;;;;;22.17;26.34;100882.58;1762712;81;20520;-68
2021/03/27 07:41:39;;;;;;;;;;;;;;;21.13;27.58;100893.66;1767273;80;20296;-66
2021/03/27 07:44:27;;;;;;;;;;;;;;;20.11;29.35;100887.12;1757653;80;21218;-59
2021/03/27 07:47:28;;;;;;;;;;;;;;;19.39;31.17;100887.38;1765968;80;20761;-63
2021/03/27 07:50:24;;;;;;;;;;;;;;;19.18;34.11;100886.45;1761100;79;20516;-59
2021/03/27 07:53:14;;;;;;;;;;;;;;;18.97;34.87;100894.48;1763295;80;20198;-59
2021/03/27 07:56:04;;;;;;;;;;;;;;;18.84;36.11;100894.36;1764000;80;20529;-67
2021/03/27 07:59:09;;;;;;;;;;;;;;;18.78;35.57;100893.23;1767740;80;21249;-62
2021/03/27 08:01:45;;;;;;;;;;;;;;;18.49;35.69;100900.33;1765868;80;20167;-60
2021/03/27 08:04:19;;;;;;;;;;;;;;;18.23;36.72;100900.62;1765214;80;20282;-60
2021/03/27 08:06:52;;;;;;;;;;;;;;;18.02;36.83;100899.89;1718003;80;20298;-60
2021/03/27 08:09:36;;;;;;;;;;;;;;;17.83;36.52;100906.70;1764761;80;20300;-59
2021/03/27 08:12:28;;;;;;;;;;;;;;;17.57;36.74;100907.73;1768040;80;20149;-59
2021/03/27 08:15:32;;;;;;;;;;;;;;;17.29;36.56;100887.05;1767748;80;20151;-60
2021/03/27 08:18:37;;;;;;;;;;;;;;;17.01;37.02;100909.67;1657932;85;20343;-59
2021/03/27 08:21:17;;;;;;;;;;;;;;;16.75;37.59;100906.52;1766683;80;20465;-62
2021/03/27 08:23:50;;;;;;;;;;;;;;;16.63;37.56;100907.41;1768031;80;20153;-60
2021/03/27 08:26:27;;;;;;;;;;;;;;;16.54;37.82;100909.44;1764853;80;21588;-60
2021/03/27 08:29:28;;;;;;;;;;;;;;;16.52;37.98;100907.48;1761465;80;20288;-59
2021/03/27 08:32:02;;;;;;;;;;;;;;;16.51;37.69;100901.81;1749439;82;20193;-62
2021/03/27 08:34:34;;;;;;;;;;;;;;;16.45;37.25;100905.77;1748950;82;20157;-62
2021/03/27 08:37:30;;;;;;;;;;;;;;;16.34;37.02;100905.31;1748641;82;20478;-60
2021/03/27 08:40:19;;;;;;;;;;;;;;;16.20;37.29;100902.63;1747303;81;21114;-61
2021/03/27 08:43:10;;;;;;;;;;;;;;;16.06;38.23;100904.78;1741811;82;20154;-61
2021/03/27 08:45:58;;;;;;;;;;;;;;;16.04;38.20;100900.97;1738355;82;20245;-62
2021/03/27 08:48:58;;;;;;;;;;;;;;;16.08;38.27;100901.32;1740786;82;20154;-63
2021/03/27 08:51:34;;;;;;;;;;;;;;;16.12;37.52;100903.81;1740348;82;20245;-62
2021/03/27 08:54:32;;;;;;;;;;;;;;;16.13;37.62;100900.59;1713404;82;21472;-62
2021/03/27 08:57:16;;;;;;;;;;;;;;;16.14;37.83;100906.30;1741061;82;20173;-61
2021/03/27 08:59:50;;;;;;;;;;;;;;;16.14;36.92;100902.24;1740238;82;20117;-60
2021/03/27 09:02:33;;;;;;;;;;;;;;;16.06;37.20;100896.67;1740872;82;20220;-61
2021/03/27 09:05:28;;;;;;;;;;;;;;;16.03;37.55;100903.41;1742146;82;20638;-60
2021/03/27 09:08:08;;;;;;;;;;;;;;;16.07;37.66;100907.24;1739184;82;22286;-60
2021/03/27 09:11:00;;;;;;;;;;;;;;;16.08;36.99;100905.38;1740167;82;20145;-60
2021/03/27 09:13:40;;;;;;;;;;;;;;;16.03;37.62;100898.51;1741968;82;20511;-61
2021/03/27 09:16:26;;;;;;;;;;;;;;;16.02;36.90;100893.64;1741873;82;20153;-62
2021/03/27 09:19:12;;;;;;;;;;;;;;;16.05;36.74;100896.40;1738662;82;20237;-60
2021/03/27 09:21:53;;;;;;;;;;;;;;;16.07;37.23;100895.08;1741666;82;21405;-61
2021/03/27 09:24:34;;;;;;;;;;;;;;;16.09;36.40;100897.02;1750436;80;20526;-59
2021/03/27 09:27:40;;;;;;;;;;;;;;;16.11;36.58;100896.23;1762148;80;20177;-59
2021/03/27 09:30:39;;;;;;;;;;;;;;;16.14;35.73;100896.29;1741104;82;20779;-69
2021/03/27 09:33:25;;;;;;;;;;;;;;;16.11;35.53;100894.08;1693615;82;20271;-67
2021/03/27 09:36:11;;;;;;;;;;;;;;;16.05;35.18;100898.56;1752676;79;21405;-67
2021/03/27 09:38:44;;;;;;;;;;;;;;;15.91;35.39;100897.20;1767427;80;20179;-67
2021/03/27 09:41:38;;;;;;;;;;;;;;;15.85;35.06;100893.58;1763297;80;20512;-68
2021/03/27 09:44:30;;;;;;;;;;;;;;;15.84;35.36;100889.25;1761070;80;20430;-66
2021/03/27 09:47:09;;;;;;;;;;;;;;;15.88;34.32;100894.44;1761856;80;20251;-67
2021/03/27 09:50:05;;;;;;;;;;;;;;;15.74;34.08;100893.07;1758040;80;21361;-67
2021/03/27 09:52:58;;;;;;;;;;;;;;;15.60;34.77;100888.45;1762470;80;20666;-67
2021/03/27 09:55:35;;;;;;;;;;;;;;;15.54;35.42;100889.41;1763587;80;20128;-67
2021/03/27 09:58:24;;;;;;;;;;;;;;;15.53;35.01;100894.00;1764380;80;20244;-68
2021/03/27 10:01:01;;;;;;;;;;;;;;;15.58;35.60;100894.63;1759826;80;20348;-66
2021/03/27 10:03:41;;;;;;;;;;;;;;;15.68;34.94;100898.90;1758683;80;21211;-67
2021/03/27 10:06:33;;;;;;;;;;;;;;;15.71;34.06;100884.91;1714704;80;20237;-67
2021/03/27 10:09:04;;;;;;;;;;;;;;;15.66;34.25;100883.44;1763738;80;20202;-67
2021/03/27 10:11:33;;;;;;;;;;;;;;;15.64;34.45;100887.45;1734063;80;20139;-67
2021/03/27 10:14:20;;;;;;;;;;;;;;;15.67;34.10;100889.14;1760507;80;20489;-67
2021/03/27 10:17:02;;;;;;;;;;;;;;;15.73;33.62;100883.31;1763670;80;20144;-68
2021/03/27 10:19:33;;;;;;;;;;;;;;;15.72;33.24;100887.06;1763102;80;20525;-67
2021/03/27 10:22:16;;;;;;;;;;;;;;;15.68;32.76;100874.58;1763261;80;20559;-67
2021/03/27 10:25:00;;;;;;;;;;;;;;;15.52;32.41;100888.84;1760015;80;20142;-68
2021/03/27 10:27:46;;;;;;;;;;;;;;;15.36;32.47;100878.23;1745100;80;20280;-67
2021/03/27 10:30:34;;;;;;;;;;;;;;;15.28;33.05;100876.70;1753735;80;21228;-67
2021/03/27 10:33:06;;;;;;;;;;;;;;;15.26;32.95;100883.41;1760304;80;20140;-67
2021/03/27 10:35:44;;;;;;;;;;;;;;;15.27;32.94;100879.12;1762539;80;20147;-67
2021/03/27 10:38:37;;;;;;;;;;;;;;;15.41;33.74;100887.27;1788780;78;20287;-66
2021/03/27 10:41:23;;;;;;;;;;;;;;;15.45;32.23;100888.14;1792328;79;20544;-67
2021/03/27 10:44:17;;;;;;;;;;;;;;;15.49;33.04;100889.29;1792241;79;20186;-67
2021/03/27 10:46:50;;;;;;;;;;;;;;;15.57;31.67;100884.34;1783785;79;20146;-67
2021/03/27 10:49:26;;;;;;;;;;;;;;;15.68;32.80;100881.84;1779258;80;20516;-67
2021/03/27 10:52:12;;;;;;;;;;;;;;;15.73;32.91;100878.72;1780685;80;20126;-67
2021/03/27 10:55:10;;;;;;;;;;;;;;;15.73;33.45;100884.13;1779284;80;20249;-67
2021/03/27 10:58:16;;;;;;;;;;;;;;;15.75;33.25;100884.72;1776933;80;21383;-65
2021/03/27 11:01:14;;;;;;;;;;;;;;;15.81;33.35;100881.63;1779305;80;20755;-67
2021/03/27 11:04:02;;;;;;;;;;;;;;;15.84;32.81;100882.49;1777293;80;20579;-67
2021/03/27 11:06:43;;;;;;;;;;;;;;;15.92;32.92;100879.92;1779802;80;20193;-68
2021/03/27 11:09:34;;;;;;;;;;;;;;;15.99;31.10;100885.17;1777605;80;20281;-68
2021/03/27 11:12:12;;;;;;;;;;;;;;;16.03;31.25;100889.05;1779245;80;22166;-66
2021/03/27 11:14:52;;;;;;;;;;;;;;;16.08;31.57;100886.45;1780509;80;20754;-67
2021/03/27 11:17:38;;;;;;;;;;;;;;;16.14;31.08;100887.37;1776222;80;20582;-68
2021/03/27 11:20:32;;;;;;;;;;;;;;;16.18;31.32;100887.98;1777312;80;20866;-68
2021/03/27 11:23:23;;;;;;;;;;;;;;;16.22;31.60;100888.31;1759290;80;20542;-69
2021/03/27 11:26:07;;;;;;;;;;;;;;;16.21;30.42;100883.44;1778270;80;21279;-69
2021/03/27 11:28:47;;;;;;;;;;;;;;;16.07;28.87;100888.31;1775389;79;20146;-68
2021/03/27 11:31:30;;;;;;;;;;;;;;;15.77;29.97;100881.78;1779462;80;20202;-68
2021/03/27 11:34:25;;;;;;;;;;;;;;;15.62;30.09;100882.30;1779013;80;20230;-69
2021/03/27 11:37:05;;;;;;;;;;;;;;;15.57;30.68;100878.93;1782404;80;20208;-68
2021/03/27 11:39:47;;;;;;;;;;;;;;;15.58;31.12;100882.48;1788330;80;21357;-68
2021/03/27 11:42:21;;;;;;;;;;;;;;;15.60;30.95;100885.75;1785819;80;20149;-68
2021/03/27 11:45:01;;;;;;;;;;;;;;;15.67;31.16;100885.63;1786989;80;20216;-68
2021/03/27 11:47:38;;;;;;;;;;;;;;;15.73;31.39;100881.42;1788191;80;20296;-68
2021/03/27 11:50:29;;;;;;;;;;;;;;;15.81;30.89;100876.73;1788496;80;20234;-67
2021/03/27 11:53:18;;;;;;;;;;;;;;;15.82;31.71;100878.38;1788515;80;21373;-66
2021/03/27 11:56:06;;;;;;;;;;;;;;;15.82;31.75;100874.33;1786778;80;20288;-68
2021/03/27 12:01:44;;;;;;;;;;;;;;;15.74;30.83;100868.74;1788356;79;20514;-67
2021/03/27 12:04:30;;;;;;;;;;;;;;;15.52;32.33;100873.44;1788464;79;20322;-67
2021/03/27 12:07:04;;;;;;;;;;;;;;;15.45;31.99;100880.04;1788118;80;21397;-66
2021/03/27 12:09:46;;;;;;;;;;;;;;;15.35;32.18;100875.23;1787099;80;20154;-67
2021/03/27 12:12:26;;;;;;;;;;;;;;;15.35;32.88;100876.58;1788302;80;20281;-68
2021/03/27 12:15:12;;;;;;;;;;;;;;;15.38;31.64;100876.11;1788499;80;20224;-68
2021/03/27 12:17:59;;;;;;;;;;;;;;;15.35;31.97;100874.69;1778296;80;20224;-68
2021/03/27 12:20:39;;;;;;;;;;;;;;;15.38;32.93;100879.62;1785027;80;21263;-67
2021/03/27 12:23:33;;;;;;;;;;;;;;;15.47;32.62;100880.61;1788389;80;20174;-69
2021/03/27 12:26:26;;;;;;;;;;;;;;;15.52;31.64;100876.14;1788193;80;20265;-67
2021/03/27 12:29:06;;;;;;;;;;;;;;;15.47;31.83;100874.66;1788720;80;20253;-70
2021/03/27 12:31:48;;;;;;;;;;;;;;;15.42;32.20;100884.03;1787383;80;20519;-67
2021/03/27 12:34:36;;;;;;;;;;;;;;;15.29;33.30;100877.53;1788701;80;22221;-67
2021/03/27 12:37:17;;;;;;;;;;;;;;;15.24;33.87;100884.46;1788090;80;20866;-68
2021/03/27 12:40:03;;;;;;;;;;;;;;;15.21;33.77;100884.13;1785108;80;20213;-68
2021/03/27 12:42:40;;;;;;;;;;;;;;;15.10;33.71;100886.30;1787098;80;20439;-69
2021/03/27 12:45:11;;;;;;;;;;;;;;;14.84;34.27;100887.05;1788565;79;20661;-68
2021/03/27 12:47:49;;;;;;;;;;;;;;;14.69;34.89;100891.05;1785376;80;22291;-68
2021/03/27 12:50:29;;;;;;;;;;;;;;;14.66;35.72;100892.02;1771671;80;20285;-67
2021/03/27 12:53:11;;;;;;;;;;;;;;;14.65;35.28;100888.51;1784020;80;20248;-67
2021/03/27 12:55:46;;;;;;;;;;;;;;;14.64;35.74;100890.91;1768077;80;20209;-69
2021/03/27 12:58:34;;;;;;;;;;;;;;;14.67;35.52;100890.97;1785679;80;20510;-68
2021/03/27 13:01:32;;;;;;;;;;;;;;;14.67;35.47;100890.97;1785506;80;21193;-68
2021/03/27 13:04:12;;;;;;;;;;;;;;;14.67;35.43;100890.97;1787637;80;20763;-67
2021/03/27 13:06:59;;;;;;;;;;;;;;;14.68;35.62;100890.73;1788019;80;20229;-68
2021/03/27 13:09:56;;;;;;;;;;;;;;;14.70;35.76;100891.85;1759450;80;20162;-68
2021/03/27 13:12:37;;;;;;;;;;;;;;;14.71;35.45;100884.87;1782698;80;20228;-68
2021/03/27 13:15:17;;;;;;;;;;;;;;;14.71;35.02;100879.48;1788597;80;22239;-68
2021/03/27 13:18:07;;;;;;;;;;;;;;;14.68;35.11;100877.78;1785127;80;21022;-68
2021/03/27 13:20:53;;;;;;;;;;;;;;;14.64;35.40;100882.81;1785619;80;20221;-67
2021/03/27 13:23:23;;;;;;;;;;;;;;;14.61;35.30;100878.39;1787294;80;20570;-67
2021/03/27 13:25:56;;;;;;;;;;;;;;;14.60;35.15;100878.08;1788336;80;20265;-67
2021/03/27 13:28:42;;;;;;;;;;;;;;;14.54;35.08;100879.83;1784022;80;22377;-68
2021/03/27 13:31:16;;;;;;;;;;;;;;;14.49;35.30;100883.23;1785461;80;20225;-66
2021/03/27 13:34:11;;;;;;;;;;;;;;;14.47;35.28;100874.55;1787313;80;20491;-68
2021/03/27 13:36:42;;;;;;;;;;;;;;;14.46;35.50;100877.48;1739194;81;20278;-67
2021/03/27 13:39:21;;;;;;;;;;;;;;;14.47;35.50;100875.06;1739572;82;20249;-68
2021/03/27 13:42:36;;;;;;;;;;;;;;;14.50;35.87;100875.95;1788465;78;20275;-67
2021/03/27 13:45:20;;;;;;;;;;;;;;;14.45;36.25;100875.30;1759832;80;20169;-67
2021/03/27 13:48:09;;;;;;;;;;;;;;;14.48;36.26;100876.17;1763772;80;21383;-66
2021/03/27 13:50:56;;;;;;;;;;;;;;;14.53;36.06;100879.02;1760743;80;20234;-67
2021/03/27 13:53:45;;;;;;;;;;;;;;;14.57;36.00;100874.50;1762387;80;20166;-69
2021/03/27 13:56:34;;;;;;;;;;;;;;;14.57;35.96;100875.85;1763655;80;20204;-68
2021/03/27 13:59:23;;;;;;;;;;;;;;;14.60;35.80;100872.69;1758754;80;20150;-69
2021/03/27 14:02:20;;;;;;;;;;;;;;;14.61;36.08;100879.23;1763898;79;21211;-67
2021/03/27 14:05:02;;;;;;;;;;;;;;;14.64;35.53;100873.36;1756680;80;20180;-67
2021/03/27 14:07:48;;;;;;;;;;;;;;;14.65;35.33;100873.67;1763355;80;20130;-67
2021/03/27 14:10:51;;;;;;;;;;;;;;;14.66;35.48;100871.27;1758753;80;20153;-68